sensor_id;sensor_type;location;lat;lon;timestamp;temperature;humidity
44305;DHT22;30019;50.576;8.568;2023-02-03T00:00:56;6.50;99.90
44305;DHT22;30019;50.576;8.568;2023-02-03T00:03:21;6.50;99.90
44305;DHT22;30019;50.576;8.568;2023-02-03T00:05:47;6.50;99.90
44305;DHT22;30019;50.576;8.568;2023-02-03T00:08:14;6.40;99.90
44305;DHT22;30019;50.576;8.568;2023-02-03T00:10:40;6.40;99.90
44305;DHT22;30019;50.576;8.568;2023-02-03T00:13:07;6.40;99.90
44305;DHT22;30019;50.576;8.568;2023-02-03T00:15:33;6.40;99.90
44305;DHT22;30019;50.576;8.568;2023-02-03T00:17:59;6.40;99.90
44305;DHT22;30019;50.576;8.568;2023-02-03T00:20:24;6.40;99.90
44305;DHT22;30019;50.576;8.568;2023-02-03T00:22:50;6.40;99.90
44305;DHT22;30019;50.576;8.568;2023-02-03T00:25:16;6.40;99.90
44305;DHT22;30019;50.576;8.568;2023-02-03T00:27:43;6.50;99.90
44305;DHT22;30019;50.576;8.568;2023-02-03T00:30:10;6.40;99.90
44305;DHT22;30019;50.576;8.568;2023-02-03T00:32:36;6.40;99.90
44305;DHT22;30019;50.576;8.568;2023-02-03T00:35:02;6.40;99.90
44305;DHT22;30019;50.576;8.568;2023-02-03T00:37:27;6.40;99.90
44305;DHT22;30019;50.576;8.568;2023-02-03T00:39:53;6.40;99.90
44305;DHT22;30019;50.576;8.568;2023-02-03T00:42:18;6.40;99.90
44305;DHT22;30019;50.576;8.568;2023-02-03T00:44:44;6.30;99.90
44305;DHT22;30019;50.576;8.568;2023-02-03T00:47:09;6.30;99.90
44305;DHT22;30019;50.576;8.568;2023-02-03T00:49:35;6.40;99.90
44305;DHT22;30019;50.576;8.568;2023-02-03T00:52:00;6.30;99.90
44305;DHT22;30019;50.576;8.568;2023-02-03T00:54:26;6.40;99.90
44305;DHT22;30019;50.576;8.568;2023-02-03T00:56:51;6.40;99.90
44305;DHT22;30019;50.576;8.568;2023-02-03T00:59:17;6.40;99.90
44305;DHT22;30019;50.576;8.568;2023-02-03T01:01:43;6.40;99.90
44305;DHT22;30019;50.576;8.568;2023-02-03T01:04:08;6.40;99.90
44305;DHT22;30019;50.576;8.568;2023-02-03T01:06:34;6.40;99.90
44305;DHT22;30019;50.576;8.568;2023-02-03T01:09:01;6.40;99.90
44305;DHT22;30019;50.576;8.568;2023-02-03T01:11:27;6.40;99.90
44305;DHT22;30019;50.576;8.568;2023-02-03T01:13:55;6.40;99.90
44305;DHT22;30019;50.576;8.568;2023-02-03T01:16:22;6.40;99.90
44305;DHT22;30019;50.576;8.568;2023-02-03T01:18:49;6.40;99.90
44305;DHT22;30019;50.576;8.568;2023-02-03T01:21:20;6.40;99.90
44305;DHT22;30019;50.576;8.568;2023-02-03T01:23:46;6.40;99.90
44305;DHT22;30019;50.576;8.568;2023-02-03T01:26:18;6.40;99.90
44305;DHT22;30019;50.576;8.568;2023-02-03T01:28:50;6.40;99.90
44305;DHT22;30019;50.576;8.568;2023-02-03T01:31:19;6.40;99.90
44305;DHT22;30019;50.576;8.568;2023-02-03T01:33:45;6.40;99.90
44305;DHT22;30019;50.576;8.568;2023-02-03T01:36:14;6.50;99.90
44305;DHT22;30019;50.576;8.568;2023-02-03T01:38:41;6.50;99.90
44305;DHT22;30019;50.576;8.568;2023-02-03T01:41:09;6.50;99.90
44305;DHT22;30019;50.576;8.568;2023-02-03T01:43:37;6.50;99.90
44305;DHT22;30019;50.576;8.568;2023-02-03T01:46:33;6.50;99.90
44305;DHT22;30019;50.576;8.568;2023-02-03T01:49:19;6.50;99.90
44305;DHT22;30019;50.576;8.568;2023-02-03T01:51:46;6.50;99.90
44305;DHT22;30019;50.576;8.568;2023-02-03T01:54:15;6.50;99.90
44305;DHT22;30019;50.576;8.568;2023-02-03T01:56:44;6.50;99.90
44305;DHT22;30019;50.576;8.568;2023-02-03T01:59:10;6.50;99.90
44305;DHT22;30019;50.576;8.568;2023-02-03T02:01:36;6.60;99.90
44305;DHT22;30019;50.576;8.568;2023-02-03T02:04:03;6.60;99.90
44305;DHT22;30019;50.576;8.568;2023-02-03T02:06:29;6.60;99.90
44305;DHT22;30019;50.576;8.568;2023-02-03T02:08:56;6.60;99.90
44305;DHT22;30019;50.576;8.568;2023-02-03T02:11:23;6.60;99.90
44305;DHT22;30019;50.576;8.568;2023-02-03T02:13:50;6.60;99.90
44305;DHT22;30019;50.576;8.568;2023-02-03T02:19:05;6.60;99.90
44305;DHT22;30019;50.576;8.568;2023-02-03T02:24:41;6.60;99.90
44305;DHT22;30019;50.576;8.568;2023-02-03T02:31:03;6.60;99.90
44305;DHT22;30019;50.576;8.568;2023-02-03T02:33:35;6.60;99.90
44305;DHT22;30019;50.576;8.568;2023-02-03T02:36:23;6.60;99.90
44305;DHT22;30019;50.576;8.568;2023-02-03T02:39:22;6.70;99.90
44305;DHT22;30019;50.576;8.568;2023-02-03T02:41:58;6.60;99.90
44305;DHT22;30019;50.576;8.568;2023-02-03T02:44:30;6.60;99.90
44305;DHT22;30019;50.576;8.568;2023-02-03T02:47:01;6.60;99.90
44305;DHT22;30019;50.576;8.568;2023-02-03T02:49:31;6.70;99.90
44305;DHT22;30019;50.576;8.568;2023-02-03T02:52:02;6.70;99.90
44305;DHT22;30019;50.576;8.568;2023-02-03T02:54:30;6.70;99.90
44305;DHT22;30019;50.576;8.568;2023-02-03T02:57:01;6.70;99.90
44305;DHT22;30019;50.576;8.568;2023-02-03T02:59:28;6.70;99.90
44305;DHT22;30019;50.576;8.568;2023-02-03T03:01:53;6.80;99.90
44305;DHT22;30019;50.576;8.568;2023-02-03T03:04:24;6.80;99.90
44305;DHT22;30019;50.576;8.568;2023-02-03T03:07:06;6.80;99.90
44305;DHT22;30019;50.576;8.568;2023-02-03T03:09:57;6.80;99.90
44305;DHT22;30019;50.576;8.568;2023-02-03T03:12:29;6.70;99.90
44305;DHT22;30019;50.576;8.568;2023-02-03T03:15:02;6.70;99.90
44305;DHT22;30019;50.576;8.568;2023-02-03T03:17:46;6.70;99.90
44305;DHT22;30019;50.576;8.568;2023-02-03T03:20:24;6.80;99.90
44305;DHT22;30019;50.576;8.568;2023-02-03T03:22:57;6.80;99.90
44305;DHT22;30019;50.576;8.568;2023-02-03T03:25:29;6.90;99.90
44305;DHT22;30019;50.576;8.568;2023-02-03T03:28:02;6.80;99.90
44305;DHT22;30019;50.576;8.568;2023-02-03T03:30:32;6.90;99.90
44305;DHT22;30019;50.576;8.568;2023-02-03T03:32:59;7.00;99.90
44305;DHT22;30019;50.576;8.568;2023-02-03T03:35:30;6.90;99.90
44305;DHT22;30019;50.576;8.568;2023-02-03T03:38:01;7.00;99.90
44305;DHT22;30019;50.576;8.568;2023-02-03T03:40:32;6.90;99.90
44305;DHT22;30019;50.576;8.568;2023-02-03T03:43:02;6.90;99.90
44305;DHT22;30019;50.576;8.568;2023-02-03T03:45:34;6.90;99.90
44305;DHT22;30019;50.576;8.568;2023-02-03T03:48:18;6.90;99.90
44305;DHT22;30019;50.576;8.568;2023-02-03T03:50:51;6.90;99.90
44305;DHT22;30019;50.576;8.568;2023-02-03T03:53:18;6.90;99.90
44305;DHT22;30019;50.576;8.568;2023-02-03T03:55:48;7.00;99.90
44305;DHT22;30019;50.576;8.568;2023-02-03T03:58:28;7.00;99.90
44305;DHT22;30019;50.576;8.568;2023-02-03T04:00:57;7.00;99.90
44305;DHT22;30019;50.576;8.568;2023-02-03T04:03:40;7.00;99.90
44305;DHT22;30019;50.576;8.568;2023-02-03T04:06:08;7.00;99.90
44305;DHT22;30019;50.576;8.568;2023-02-03T04:08:34;7.00;99.90
44305;DHT22;30019;50.576;8.568;2023-02-03T04:11:00;7.00;99.90
44305;DHT22;30019;50.576;8.568;2023-02-03T04:13:25;7.00;99.90
44305;DHT22;30019;50.576;8.568;2023-02-03T04:15:51;7.00;99.90
44305;DHT22;30019;50.576;8.568;2023-02-03T04:18:16;7.00;99.90
44305;DHT22;30019;50.576;8.568;2023-02-03T04:20:42;7.00;99.90
44305;DHT22;30019;50.576;8.568;2023-02-03T04:23:08;7.00;99.90
44305;DHT22;30019;50.576;8.568;2023-02-03T04:25:34;7.00;99.90
44305;DHT22;30019;50.576;8.568;2023-02-03T04:28:00;6.90;99.90
44305;DHT22;30019;50.576;8.568;2023-02-03T04:30:26;7.00;99.90
44305;DHT22;30019;50.576;8.568;2023-02-03T04:32:52;7.10;99.90
44305;DHT22;30019;50.576;8.568;2023-02-03T04:35:17;7.10;99.90
44305;DHT22;30019;50.576;8.568;2023-02-03T04:37:43;7.10;99.90
44305;DHT22;30019;50.576;8.568;2023-02-03T04:40:09;7.10;99.90
44305;DHT22;30019;50.576;8.568;2023-02-03T04:42:36;7.10;99.90
44305;DHT22;30019;50.576;8.568;2023-02-03T04:45:04;7.00;99.90
44305;DHT22;30019;50.576;8.568;2023-02-03T04:47:30;7.00;99.90
44305;DHT22;30019;50.576;8.568;2023-02-03T04:49:56;7.10;99.90
44305;DHT22;30019;50.576;8.568;2023-02-03T04:52:22;7.00;99.90
44305;DHT22;30019;50.576;8.568;2023-02-03T04:54:47;7.00;99.90
44305;DHT22;30019;50.576;8.568;2023-02-03T04:57:13;7.00;99.90
44305;DHT22;30019;50.576;8.568;2023-02-03T04:59:38;7.00;99.90
44305;DHT22;30019;50.576;8.568;2023-02-03T05:02:04;7.10;99.90
44305;DHT22;30019;50.576;8.568;2023-02-03T05:04:31;7.10;99.90
44305;DHT22;30019;50.576;8.568;2023-02-03T05:06:56;7.10;99.90
44305;DHT22;30019;50.576;8.568;2023-02-03T05:09:23;7.20;99.90
44305;DHT22;30019;50.576;8.568;2023-02-03T05:11:49;7.10;99.90
44305;DHT22;30019;50.576;8.568;2023-02-03T05:14:14;7.20;99.90
44305;DHT22;30019;50.576;8.568;2023-02-03T05:16:40;7.10;99.90
44305;DHT22;30019;50.576;8.568;2023-02-03T05:19:05;7.20;99.90
44305;DHT22;30019;50.576;8.568;2023-02-03T05:21:31;7.10;99.90
44305;DHT22;30019;50.576;8.568;2023-02-03T05:23:56;7.10;99.90
44305;DHT22;30019;50.576;8.568;2023-02-03T05:26:22;7.10;99.90
44305;DHT22;30019;50.576;8.568;2023-02-03T05:28:48;7.10;99.90
44305;DHT22;30019;50.576;8.568;2023-02-03T05:31:13;7.10;99.90
44305;DHT22;30019;50.576;8.568;2023-02-03T05:33:39;7.10;99.90
44305;DHT22;30019;50.576;8.568;2023-02-03T05:36:05;7.10;99.90
44305;DHT22;30019;50.576;8.568;2023-02-03T05:38:30;7.10;99.90
44305;DHT22;30019;50.576;8.568;2023-02-03T05:40:56;7.10;99.90
44305;DHT22;30019;50.576;8.568;2023-02-03T05:43:40;7.10;99.90
44305;DHT22;30019;50.576;8.568;2023-02-03T05:46:06;7.10;99.90
44305;DHT22;30019;50.576;8.568;2023-02-03T05:48:32;7.10;99.90
44305;DHT22;30019;50.576;8.568;2023-02-03T05:50:58;7.10;99.90
44305;DHT22;30019;50.576;8.568;2023-02-03T05:53:24;7.10;99.90
44305;DHT22;30019;50.576;8.568;2023-02-03T05:55:50;7.10;99.90
44305;DHT22;30019;50.576;8.568;2023-02-03T05:58:16;7.10;99.90
44305;DHT22;30019;50.576;8.568;2023-02-03T06:00:42;7.10;99.90
44305;DHT22;30019;50.576;8.568;2023-02-03T06:03:08;7.10;99.90
44305;DHT22;30019;50.576;8.568;2023-02-03T06:05:34;7.10;99.90
44305;DHT22;30019;50.576;8.568;2023-02-03T06:08:02;7.10;99.90
44305;DHT22;30019;50.576;8.568;2023-02-03T06:10:29;7.10;99.90
44305;DHT22;30019;50.576;8.568;2023-02-03T06:12:54;7.10;99.90
44305;DHT22;30019;50.576;8.568;2023-02-03T06:15:20;7.10;99.90
44305;DHT22;30019;50.576;8.568;2023-02-03T06:17:47;7.20;99.90
44305;DHT22;30019;50.576;8.568;2023-02-03T06:20:14;7.20;99.90
44305;DHT22;30019;50.576;8.568;2023-02-03T06:22:40;7.30;99.90
44305;DHT22;30019;50.576;8.568;2023-02-03T06:25:06;7.20;99.90
44305;DHT22;30019;50.576;8.568;2023-02-03T06:27:52;7.20;99.90
44305;DHT22;30019;50.576;8.568;2023-02-03T06:30:34;7.20;99.90
44305;DHT22;30019;50.576;8.568;2023-02-03T06:33:02;7.30;99.90
44305;DHT22;30019;50.576;8.568;2023-02-03T06:35:31;7.20;99.90
44305;DHT22;30019;50.576;8.568;2023-02-03T06:37:56;7.30;99.90
44305;DHT22;30019;50.576;8.568;2023-02-03T06:40:27;7.30;99.90
44305;DHT22;30019;50.576;8.568;2023-02-03T06:42:52;7.20;99.90
44305;DHT22;30019;50.576;8.568;2023-02-03T06:45:20;7.20;99.90
44305;DHT22;30019;50.576;8.568;2023-02-03T06:47:49;7.20;99.90
44305;DHT22;30019;50.576;8.568;2023-02-03T06:50:15;7.30;99.90
44305;DHT22;30019;50.576;8.568;2023-02-03T06:52:41;7.30;99.90
44305;DHT22;30019;50.576;8.568;2023-02-03T06:55:07;7.30;99.90
44305;DHT22;30019;50.576;8.568;2023-02-03T06:57:32;7.30;99.90
44305;DHT22;30019;50.576;8.568;2023-02-03T07:00:01;7.30;99.90
44305;DHT22;30019;50.576;8.568;2023-02-03T07:02:27;7.30;99.90
44305;DHT22;30019;50.576;8.568;2023-02-03T07:04:52;7.20;99.90
44305;DHT22;30019;50.576;8.568;2023-02-03T07:07:20;7.30;99.90
44305;DHT22;30019;50.576;8.568;2023-02-03T07:09:46;7.20;99.90
44305;DHT22;30019;50.576;8.568;2023-02-03T07:12:11;7.20;99.90
44305;DHT22;30019;50.576;8.568;2023-02-03T07:14:37;7.30;99.90
44305;DHT22;30019;50.576;8.568;2023-02-03T07:17:05;7.30;99.90
44305;DHT22;30019;50.576;8.568;2023-02-03T07:19:31;7.30;99.90
44305;DHT22;30019;50.576;8.568;2023-02-03T07:21:57;7.30;99.90
44305;DHT22;30019;50.576;8.568;2023-02-03T07:24:22;7.30;99.90
44305;DHT22;30019;50.576;8.568;2023-02-03T07:26:48;7.40;99.90
44305;DHT22;30019;50.576;8.568;2023-02-03T07:29:13;7.40;99.90
44305;DHT22;30019;50.576;8.568;2023-02-03T07:31:42;7.30;99.90
44305;DHT22;30019;50.576;8.568;2023-02-03T07:34:08;7.40;99.90
44305;DHT22;30019;50.576;8.568;2023-02-03T07:36:33;7.40;99.90
44305;DHT22;30019;50.576;8.568;2023-02-03T07:38:59;7.40;99.90
44305;DHT22;30019;50.576;8.568;2023-02-03T07:41:25;7.40;99.90
44305;DHT22;30019;50.576;8.568;2023-02-03T07:43:51;7.40;99.90
44305;DHT22;30019;50.576;8.568;2023-02-03T07:46:16;7.50;99.90
44305;DHT22;30019;50.576;8.568;2023-02-03T07:48:42;7.50;99.90
44305;DHT22;30019;50.576;8.568;2023-02-03T07:51:10;7.50;99.90
44305;DHT22;30019;50.576;8.568;2023-02-03T07:53:35;7.50;99.90
44305;DHT22;30019;50.576;8.568;2023-02-03T07:56:02;7.50;99.90
44305;DHT22;30019;50.576;8.568;2023-02-03T07:58:28;7.50;99.90
44305;DHT22;30019;50.576;8.568;2023-02-03T08:00:55;7.50;99.90
44305;DHT22;30019;50.576;8.568;2023-02-03T08:03:20;7.50;99.90
44305;DHT22;30019;50.576;8.568;2023-02-03T08:05:46;7.60;99.90
44305;DHT22;30019;50.576;8.568;2023-02-03T08:08:12;7.50;99.90
44305;DHT22;30019;50.576;8.568;2023-02-03T08:10:38;7.50;99.90
44305;DHT22;30019;50.576;8.568;2023-02-03T08:13:03;7.50;99.90
44305;DHT22;30019;50.576;8.568;2023-02-03T08:15:29;7.60;99.90
44305;DHT22;30019;50.576;8.568;2023-02-03T08:17:55;7.60;99.90
44305;DHT22;30019;50.576;8.568;2023-02-03T08:20:20;7.60;99.90
44305;DHT22;30019;50.576;8.568;2023-02-03T08:22:46;7.60;99.90
44305;DHT22;30019;50.576;8.568;2023-02-03T08:25:12;7.60;99.90
44305;DHT22;30019;50.576;8.568;2023-02-03T08:27:39;7.70;99.90
44305;DHT22;30019;50.576;8.568;2023-02-03T08:30:06;7.70;99.90
44305;DHT22;30019;50.576;8.568;2023-02-03T08:32:32;7.80;99.90
44305;DHT22;30019;50.576;8.568;2023-02-03T08:34:58;7.70;99.90
44305;DHT22;30019;50.576;8.568;2023-02-03T08:37:24;7.70;99.90
44305;DHT22;30019;50.576;8.568;2023-02-03T08:39:50;7.80;99.90
44305;DHT22;30019;50.576;8.568;2023-02-03T08:42:16;7.90;99.90
44305;DHT22;30019;50.576;8.568;2023-02-03T08:44:42;7.80;99.90
44305;DHT22;30019;50.576;8.568;2023-02-03T08:47:09;7.80;99.90
44305;DHT22;30019;50.576;8.568;2023-02-03T08:49:35;7.80;99.90
44305;DHT22;30019;50.576;8.568;2023-02-03T08:52:04;7.80;99.90
44305;DHT22;30019;50.576;8.568;2023-02-03T08:54:30;7.80;99.90
44305;DHT22;30019;50.576;8.568;2023-02-03T08:56:56;7.90;99.90
44305;DHT22;30019;50.576;8.568;2023-02-03T08:59:22;7.90;99.90
44305;DHT22;30019;50.576;8.568;2023-02-03T09:01:48;8.00;99.90
44305;DHT22;30019;50.576;8.568;2023-02-03T09:04:15;8.00;99.90
44305;DHT22;30019;50.576;8.568;2023-02-03T09:06:47;8.00;99.90
44305;DHT22;30019;50.576;8.568;2023-02-03T09:09:13;8.00;99.90
44305;DHT22;30019;50.576;8.568;2023-02-03T09:11:40;8.00;99.90
44305;DHT22;30019;50.576;8.568;2023-02-03T09:14:06;8.10;99.90
44305;DHT22;30019;50.576;8.568;2023-02-03T09:16:32;8.00;99.90
44305;DHT22;30019;50.576;8.568;2023-02-03T09:18:58;8.00;99.90
44305;DHT22;30019;50.576;8.568;2023-02-03T09:21:23;8.10;99.90
44305;DHT22;30019;50.576;8.568;2023-02-03T09:23:49;8.10;99.90
44305;DHT22;30019;50.576;8.568;2023-02-03T09:26:15;8.10;99.90
44305;DHT22;30019;50.576;8.568;2023-02-03T09:28:41;8.10;99.90
44305;DHT22;30019;50.576;8.568;2023-02-03T09:31:41;8.10;99.90
44305;DHT22;30019;50.576;8.568;2023-02-03T09:34:07;8.10;99.90
44305;DHT22;30019;50.576;8.568;2023-02-03T09:36:42;8.10;99.90
44305;DHT22;30019;50.576;8.568;2023-02-03T09:39:07;8.20;99.90
44305;DHT22;30019;50.576;8.568;2023-02-03T09:47:36;8.20;99.90
44305;DHT22;30019;50.576;8.568;2023-02-03T09:50:17;8.20;99.90
44305;DHT22;30019;50.576;8.568;2023-02-03T09:52:44;8.30;99.90
44305;DHT22;30019;50.576;8.568;2023-02-03T09:55:36;8.30;99.90
44305;DHT22;30019;50.576;8.568;2023-02-03T09:58:12;8.30;99.90
44305;DHT22;30019;50.576;8.568;2023-02-03T10:00:54;8.30;99.90
44305;DHT22;30019;50.576;8.568;2023-02-03T10:03:46;8.30;99.90
44305;DHT22;30019;50.576;8.568;2023-02-03T10:06:29;8.30;99.90
44305;DHT22;30019;50.576;8.568;2023-02-03T10:17:40;8.20;99.90
44305;DHT22;30019;50.576;8.568;2023-02-03T10:22:49;8.10;99.90
44305;DHT22;30019;50.576;8.568;2023-02-03T10:25:23;8.10;99.90
44305;DHT22;30019;50.576;8.568;2023-02-03T10:27:57;8.00;99.90
44305;DHT22;30019;50.576;8.568;2023-02-03T10:30:25;8.00;99.90
44305;DHT22;30019;50.576;8.568;2023-02-03T10:32:54;8.00;99.90
44305;DHT22;30019;50.576;8.568;2023-02-03T10:35:32;8.00;99.90
44305;DHT22;30019;50.576;8.568;2023-02-03T10:38:00;8.00;99.90
44305;DHT22;30019;50.576;8.568;2023-02-03T10:40:28;8.00;99.90
44305;DHT22;30019;50.576;8.568;2023-02-03T10:42:54;7.90;99.90
44305;DHT22;30019;50.576;8.568;2023-02-03T10:45:39;7.90;99.90
44305;DHT22;30019;50.576;8.568;2023-02-03T10:48:06;7.90;99.90
44305;DHT22;30019;50.576;8.568;2023-02-03T10:50:37;7.90;99.90
44305;DHT22;30019;50.576;8.568;2023-02-03T10:53:25;7.90;99.90
44305;DHT22;30019;50.576;8.568;2023-02-03T10:56:06;8.00;99.90
44305;DHT22;30019;50.576;8.568;2023-02-03T10:58:33;7.90;99.90
44305;DHT22;30019;50.576;8.568;2023-02-03T11:04:25;7.90;99.90
44305;DHT22;30019;50.576;8.568;2023-02-03T11:06:57;7.90;99.90
44305;DHT22;30019;50.576;8.568;2023-02-03T11:09:37;7.90;99.90
44305;DHT22;30019;50.576;8.568;2023-02-03T11:12:15;7.80;99.90
44305;DHT22;30019;50.576;8.568;2023-02-03T11:14:51;7.80;99.90
44305;DHT22;30019;50.576;8.568;2023-02-03T11:17:20;7.80;99.90
44305;DHT22;30019;50.576;8.568;2023-02-03T11:20:13;7.80;99.90
44305;DHT22;30019;50.576;8.568;2023-02-03T11:22:41;7.80;99.90
44305;DHT22;30019;50.576;8.568;2023-02-03T11:25:26;7.70;99.90
44305;DHT22;30019;50.576;8.568;2023-02-03T11:27:55;7.70;99.90
44305;DHT22;30019;50.576;8.568;2023-02-03T11:30:25;7.70;99.90
44305;DHT22;30019;50.576;8.568;2023-02-03T11:32:52;7.70;99.90
44305;DHT22;30019;50.576;8.568;2023-02-03T11:35:21;7.60;99.90
44305;DHT22;30019;50.576;8.568;2023-02-03T11:37:51;7.60;99.90
44305;DHT22;30019;50.576;8.568;2023-02-03T11:40:24;7.60;99.90
44305;DHT22;30019;50.576;8.568;2023-02-03T11:45:37;7.60;99.90
44305;DHT22;30019;50.576;8.568;2023-02-03T11:48:31;7.60;99.90
44305;DHT22;30019;50.576;8.568;2023-02-03T11:54:11;7.60;99.90
44305;DHT22;30019;50.576;8.568;2023-02-03T12:05:50;7.70;99.90
44305;DHT22;30019;50.576;8.568;2023-02-03T12:09:00;7.70;99.90
44305;DHT22;30019;50.576;8.568;2023-02-03T12:11:50;7.80;99.90
44305;DHT22;30019;50.576;8.568;2023-02-03T12:14:37;7.80;99.90
44305;DHT22;30019;50.576;8.568;2023-02-03T12:20:54;7.70;99.90
44305;DHT22;30019;50.576;8.568;2023-02-03T12:23:38;7.70;99.90
44305;DHT22;30019;50.576;8.568;2023-02-03T12:26:25;7.80;99.90
44305;DHT22;30019;50.576;8.568;2023-02-03T12:29:17;7.80;99.90
44305;DHT22;30019;50.576;8.568;2023-02-03T12:32:18;7.80;99.90
44305;DHT22;30019;50.576;8.568;2023-02-03T12:38:16;7.80;99.90
44305;DHT22;30019;50.576;8.568;2023-02-03T12:40:55;7.90;99.90
44305;DHT22;30019;50.576;8.568;2023-02-03T12:43:40;7.80;99.90
44305;DHT22;30019;50.576;8.568;2023-02-03T12:46:13;7.90;99.90
44305;DHT22;30019;50.576;8.568;2023-02-03T12:49:04;7.90;99.90
44305;DHT22;30019;50.576;8.568;2023-02-03T12:51:39;7.90;99.90
44305;DHT22;30019;50.576;8.568;2023-02-03T12:54:32;7.90;99.90
44305;DHT22;30019;50.576;8.568;2023-02-03T12:57:20;8.00;99.90
44305;DHT22;30019;50.576;8.568;2023-02-03T13:02:28;8.00;99.90
44305;DHT22;30019;50.576;8.568;2023-02-03T13:05:14;8.00;99.90
44305;DHT22;30019;50.576;8.568;2023-02-03T13:08:12;8.10;99.90
44305;DHT22;30019;50.576;8.568;2023-02-03T13:10:50;8.20;99.90
44305;DHT22;30019;50.576;8.568;2023-02-03T13:13:25;8.20;99.90
44305;DHT22;30019;50.576;8.568;2023-02-03T13:15:53;8.20;99.90
44305;DHT22;30019;50.576;8.568;2023-02-03T13:18:41;8.10;99.90
44305;DHT22;30019;50.576;8.568;2023-02-03T13:21:10;8.20;99.90
44305;DHT22;30019;50.576;8.568;2023-02-03T13:23:36;8.30;99.90
44305;DHT22;30019;50.576;8.568;2023-02-03T13:29:16;8.30;99.90
44305;DHT22;30019;50.576;8.568;2023-02-03T13:41:17;8.30;99.90
44305;DHT22;30019;50.576;8.568;2023-02-03T13:47:18;8.40;99.90
44305;DHT22;30019;50.576;8.568;2023-02-03T13:49:53;8.40;99.90
44305;DHT22;30019;50.576;8.568;2023-02-03T13:52:33;8.40;99.90
44305;DHT22;30019;50.576;8.568;2023-02-03T13:55:01;8.30;99.90
44305;DHT22;30019;50.576;8.568;2023-02-03T13:57:32;8.30;99.90
44305;DHT22;30019;50.576;8.568;2023-02-03T13:59:59;8.30;99.90
44305;DHT22;30019;50.576;8.568;2023-02-03T14:04:55;8.30;99.90
44305;DHT22;30019;50.576;8.568;2023-02-03T14:07:39;8.30;99.90
44305;DHT22;30019;50.576;8.568;2023-02-03T14:12:38;8.40;99.90
44305;DHT22;30019;50.576;8.568;2023-02-03T14:17:56;8.50;99.90
44305;DHT22;30019;50.576;8.568;2023-02-03T14:26:02;8.50;99.90
44305;DHT22;30019;50.576;8.568;2023-02-03T14:28:37;8.50;99.90
44305;DHT22;30019;50.576;8.568;2023-02-03T14:31:18;8.40;99.90
44305;DHT22;30019;50.576;8.568;2023-02-03T14:33:52;8.50;99.90
44305;DHT22;30019;50.576;8.568;2023-02-03T14:38:52;8.40;99.90
44305;DHT22;30019;50.576;8.568;2023-02-03T14:41:28;8.40;99.90
44305;DHT22;30019;50.576;8.568;2023-02-03T14:59:36;8.30;99.90
44305;DHT22;30019;50.576;8.568;2023-02-03T15:02:33;8.40;99.90
44305;DHT22;30019;50.576;8.568;2023-02-03T15:10:18;8.70;99.90
44305;DHT22;30019;50.576;8.568;2023-02-03T15:13:27;8.60;99.90
44305;DHT22;30019;50.576;8.568;2023-02-03T15:15:56;8.60;99.90
44305;DHT22;30019;50.576;8.568;2023-02-03T15:18:34;8.60;99.90
44305;DHT22;30019;50.576;8.568;2023-02-03T15:21:01;8.70;99.90
44305;DHT22;30019;50.576;8.568;2023-02-03T15:23:37;8.70;99.90
44305;DHT22;30019;50.576;8.568;2023-02-03T15:26:15;8.60;99.90
44305;DHT22;30019;50.576;8.568;2023-02-03T15:35:44;8.50;99.90
44305;DHT22;30019;50.576;8.568;2023-02-03T15:41:54;8.60;99.90
44305;DHT22;30019;50.576;8.568;2023-02-03T15:44:41;8.70;99.90
44305;DHT22;30019;50.576;8.568;2023-02-03T15:47:25;8.70;99.90
44305;DHT22;30019;50.576;8.568;2023-02-03T15:50:13;8.70;99.90
44305;DHT22;30019;50.576;8.568;2023-02-03T15:52:41;8.70;99.90
44305;DHT22;30019;50.576;8.568;2023-02-03T15:55:27;8.60;99.90
44305;DHT22;30019;50.576;8.568;2023-02-03T15:57:56;8.60;99.90
44305;DHT22;30019;50.576;8.568;2023-02-03T16:00:36;8.60;99.90
44305;DHT22;30019;50.576;8.568;2023-02-03T16:06:33;8.60;99.90
44305;DHT22;30019;50.576;8.568;2023-02-03T16:09:33;8.60;99.90
44305;DHT22;30019;50.576;8.568;2023-02-03T16:12:23;8.50;99.90
44305;DHT22;30019;50.576;8.568;2023-02-03T16:14:49;8.50;99.90
44305;DHT22;30019;50.576;8.568;2023-02-03T16:17:25;8.50;99.90
44305;DHT22;30019;50.576;8.568;2023-02-03T16:22:40;8.40;99.90
44305;DHT22;30019;50.576;8.568;2023-02-03T16:25:26;8.30;99.90
44305;DHT22;30019;50.576;8.568;2023-02-03T16:30:56;8.30;99.90
44305;DHT22;30019;50.576;8.568;2023-02-03T16:33:46;8.20;99.90
44305;DHT22;30019;50.576;8.568;2023-02-03T16:36:31;8.20;99.90
44305;DHT22;30019;50.576;8.568;2023-02-03T16:39:15;8.20;99.90
44305;DHT22;30019;50.576;8.568;2023-02-03T16:42:00;8.20;99.90
44305;DHT22;30019;50.576;8.568;2023-02-03T16:44:48;8.30;99.90
44305;DHT22;30019;50.576;8.568;2023-02-03T16:47:32;8.30;99.90
44305;DHT22;30019;50.576;8.568;2023-02-03T16:50:22;8.20;99.90
44305;DHT22;30019;50.576;8.568;2023-02-03T16:53:16;8.20;99.90
44305;DHT22;30019;50.576;8.568;2023-02-03T16:55:43;8.20;99.90
44305;DHT22;30019;50.576;8.568;2023-02-03T16:58:09;8.20;99.90
44305;DHT22;30019;50.576;8.568;2023-02-03T17:01:07;8.20;99.90
44305;DHT22;30019;50.576;8.568;2023-02-03T17:03:38;8.20;99.90
44305;DHT22;30019;50.576;8.568;2023-02-03T17:06:06;8.20;99.90
44305;DHT22;30019;50.576;8.568;2023-02-03T17:08:33;8.20;99.90
44305;DHT22;30019;50.576;8.568;2023-02-03T17:11:15;8.10;99.90
44305;DHT22;30019;50.576;8.568;2023-02-03T17:13:41;8.00;99.90
44305;DHT22;30019;50.576;8.568;2023-02-03T17:16:16;8.00;99.90
44305;DHT22;30019;50.576;8.568;2023-02-03T17:19:03;7.90;99.90
44305;DHT22;30019;50.576;8.568;2023-02-03T17:21:30;8.00;99.90
44305;DHT22;30019;50.576;8.568;2023-02-03T17:23:57;7.90;99.90
44305;DHT22;30019;50.576;8.568;2023-02-03T17:26:23;7.80;99.90
44305;DHT22;30019;50.576;8.568;2023-02-03T17:28:49;7.80;99.90
44305;DHT22;30019;50.576;8.568;2023-02-03T17:31:17;7.80;99.90
44305;DHT22;30019;50.576;8.568;2023-02-03T17:33:43;7.80;99.90
44305;DHT22;30019;50.576;8.568;2023-02-03T17:36:12;7.80;99.90
44305;DHT22;30019;50.576;8.568;2023-02-03T17:38:44;7.80;99.90
44305;DHT22;30019;50.576;8.568;2023-02-03T17:41:14;7.80;99.90
44305;DHT22;30019;50.576;8.568;2023-02-03T17:43:41;7.70;99.90
44305;DHT22;30019;50.576;8.568;2023-02-03T17:46:08;7.60;99.90
44305;DHT22;30019;50.576;8.568;2023-02-03T17:48:34;7.60;99.90
44305;DHT22;30019;50.576;8.568;2023-02-03T17:51:14;7.70;99.90
44305;DHT22;30019;50.576;8.568;2023-02-03T17:53:48;7.70;99.90
44305;DHT22;30019;50.576;8.568;2023-02-03T17:56:24;7.60;99.90
44305;DHT22;30019;50.576;8.568;2023-02-03T17:58:58;7.50;99.90
44305;DHT22;30019;50.576;8.568;2023-02-03T18:01:25;7.60;99.90
44305;DHT22;30019;50.576;8.568;2023-02-03T18:03:54;7.50;99.90
44305;DHT22;30019;50.576;8.568;2023-02-03T18:06:22;7.50;99.90
44305;DHT22;30019;50.576;8.568;2023-02-03T18:08:48;7.40;99.90
44305;DHT22;30019;50.576;8.568;2023-02-03T18:11:15;7.50;99.90
44305;DHT22;30019;50.576;8.568;2023-02-03T18:13:43;7.50;99.90
44305;DHT22;30019;50.576;8.568;2023-02-03T18:16:18;7.50;99.90
44305;DHT22;30019;50.576;8.568;2023-02-03T18:18:46;7.50;99.90